シカゴ/オヘア の空港の天気 - METARとTAF

シカゴ・オヘア国際空港 ( KORD / ORD ) - アメリカ イリノイ州シカゴ
飛行場実況気象(Metar)
観測時間08/22 10:51 CDT (08/22 15:51 UTC)
風向・風速東北東 6m/s
視程10km以上
天気現象
全天の8割程度の雲 雲底高度 940m
全天の8割程度の雲 雲底高度 7620m
気温24.4℃
湿度62%
気圧1015.6hPa
METARKORD 221551Z 06012KT 10SM BKN031 BKN250 24/17 A3001 RMK AO2 SLP156 T02440167
過去の天気等 Google飛行場航空写真 Wunderground天気予報

過去48時間のMETAR

飛行場予報(TAF)
発表時間: 8/22 10:15 CDT (8/22 15:15 UTC)
予報対象時間: 22日10時 CDT ~ 23日13時 CDT
風向・風速東北東 6m/s
視程10km以上
全天の4割程度の雲 雲底高度 910m
全天の8割程度の雲 雲底高度 1070m
22日20時 CDT から
風向・風速北東 3m/s
視程10km以上
少しの雲 雲底高度 7620m
KORD 221515Z 2215/2318 06012KT P6SM SCT030 BKN035
FM230100 04005KT P6SM FEW250